Sierra Nevada Aquatic Research Lab (SNARL) Reserve, Santa Monica Mtns, California Weather observations

Data are for 10 minute period ending at time listed.
 Day   Time   Solar   Ave.   Ave.  Ave.  Vector  Max.   Baro.   Total    
  of    of     Rad.   Air    Rel.  Wind   Wind   Wind  Press.  Precip.   
Year   Day            Temp.  Hum.  Speed  Dir.   Gust                    
2014   (PST)  Kw/m2    F      %     mph   deg.    mph    mb.     in.     
-------------------------------------------------------------------------
 272    3:10   0.00   30.4    98    1.8   222     2.6   783.9    0.00 
 272    3:20   0.00   30.3    98    4.1   247     5.1   784.0    0.00 
 272    3:30   0.00   30.5    99    4.5   247     5.5   784.1    0.00 
 272    3:40   0.00   31.0    98    4.3   258     6.5   784.0    0.00 
 272    3:50   0.00   32.0    98    1.7   256     3.6   783.9    0.00 
 272    4:00   0.00   31.4    96    2.1   264     8.0   783.9    0.00 
 272    4:10   0.00   33.2    97    4.2   284     8.6   784.0    0.00 
 272    4:20   0.00   32.0    93    1.4   332     4.0   784.2    0.00 
 272    4:30   0.00   30.9    95    1.4   271     2.8   784.1    0.00 
 272    4:40   0.00   30.4    96    0.8   278     1.8   784.2    0.00 
 272    4:50   0.00   30.1    97    1.4   264     3.9   784.3    0.00 
 272    5:00   0.00   29.8    98    0.3   268     1.7   784.3    0.00 
 272    5:10   0.00   30.2    98    1.1    35     2.6   784.1    0.00 
 272    5:20   0.00   30.2    97    1.4    45     3.1   784.0    0.00 
 272    5:30   0.00   29.1    96    0.9   309     3.5   783.9    0.00 
 272    5:40   0.00   29.2    98    3.6   301     4.5   783.9    0.00 
 272    5:50   0.00   30.0    98    2.1   292     3.7   784.0    0.00 
 272    6:00   0.00   29.1    98    2.9   262     4.0   784.0    0.00 
 272    6:10   0.05   29.1    98    1.6   237     3.9   784.1    0.00 
 272    6:20   0.10   31.4    96    0.9   360     2.6   784.0    0.00 
 272    6:30   0.15   33.1    91    2.4   347     4.4   784.1    0.00 
 272    6:40   0.19   35.0    87    0.4   104     2.6   784.2    0.00 
 272    6:50   0.21   36.9    81    0.7    17     2.1   784.1    0.00 
 272    7:00   0.13   37.2    82    0.2   139     1.1   783.9    0.00 
 272    7:10   0.12   37.3    81    0.2   175     1.3   783.9    0.00 
 272    7:20   0.25   37.6    84    0.3   192     1.2   784.1    0.00 
 272    7:30   0.30   38.5    85    1.9   255     3.4   784.4    0.00 
 272    7:40   0.33   39.7    84    2.1   319     4.5   784.4    0.00 
 272    7:50   0.36   39.8    83    3.1   320     5.2   784.4    0.00 
 272    8:00   0.39   41.5    80    1.6   351     6.3   784.3    0.00 
 272    8:10   0.41   42.4    80    2.3   358     4.0   784.3    0.00 
 272    8:20   0.43   43.6    79    0.6   109     2.0   784.2    0.00 
 272    8:30   0.47   44.9    77    1.5   325     4.5   784.3    0.00 
 272    8:40   0.49   46.4    75    0.6   312     2.9   784.4    0.00 
 272    8:50   0.52   47.5    74    2.0   106     4.1   784.5    0.00 
 272    9:00   0.55   47.0    76    3.8    72    10.1   784.5    0.00 
 272    9:10   0.57   45.3    82    4.8    75     9.3   784.6    0.00 
 272    9:20   0.60   46.1    77    4.2    84     7.5   784.5    0.00 
 272    9:30   0.63   48.4    70    2.3    78     4.8   784.5    0.00 
 272    9:40   0.65   49.5    66    2.1   128     5.2   784.4    0.00 
 272    9:50   0.68   50.3    67    2.6    72     5.4   784.3    0.00 
 272   10:00   0.70   51.3    68    3.4    51     7.1   784.2    0.00 
 272   10:10   0.73   51.9    68    4.5    69     8.3   784.2    0.00 
 272   10:20   0.74   53.1    62    2.7    65     5.5   784.2    0.00 
 272   10:30   0.76   54.5    53    2.1    89     5.0   784.2    0.00 
 272   10:40   0.78   56.9    42    2.1   136     3.8   784.2    0.00 
 272   10:50   0.79   57.4    45    3.5    25     7.4   784.3    0.01 
 272   11:00   0.79   57.4    49    5.1    74    11.0   784.4    0.00 
 272   11:10   0.80   57.4    48    6.4    98     9.9   784.4    0.00 
 272   11:20   0.81   57.8    45    3.5    72     6.6   784.4    0.00 
 272   11:30   0.82   59.1    42    2.5    44     7.1   784.5    0.00 
 272   11:40   0.82   59.6    43    4.3    84     8.3   784.5    0.00 
 272   11:50   0.82   60.7    43    4.2    95     8.9   784.6    0.00 
 272   12:00   0.82   60.9    41    2.1   125     4.9   784.5    0.00 
 272   12:10   0.81   61.6    38    3.9   121     8.2   784.6    0.00 
 272   12:20   0.80   61.7    37    3.9    68     9.1   784.6    0.00 
 272   12:30   0.80   62.4    34    4.1    62     9.1   784.5    0.00 
 272   12:40   0.79   62.7    33    2.6   131     7.5   784.4    0.00 
 272   12:50   0.79   62.7    33    3.1   125     8.8   784.3    0.00 
 272   13:00   0.78   63.6    31    2.1    89     5.8   784.2    0.00 
 272   13:10   0.76   63.9    31    4.7    85     9.8   784.1    0.00 
 272   13:20   0.74   64.1    30    3.9   359     9.9   784.1    0.00 
 272   13:30   0.73   64.4    28    2.6   293     8.5   784.0    0.00 
 272   13:40   0.71   64.3    27    2.7    36     7.8   784.1    0.00 
 272   13:50   0.69   65.0    28    2.8   107     9.8   784.1    0.00 
 272   14:00   0.67   65.2    27    4.6   102    10.7   784.1    0.00 
 272   14:10   0.64   65.1    26    3.3    82     7.7   784.1    0.00 
 272   14:20   0.62   65.9    24    6.0    49    22.4   784.0    0.00 
 272   14:30   0.59   66.7    25    5.1   359    12.3   784.0    0.00 
 272   14:40   0.57   66.2    24    5.3     6    11.8   784.0    0.00 
 272   14:50   0.54   66.1    23    6.2     2    12.5   784.1    0.00 
 272   15:00   0.51   66.0    24    5.4   352    12.6   784.2    0.00 
 272   15:10   0.47   65.9    25    5.1    10    11.2   784.2    0.00 
 272   15:20   0.44   66.1    24    4.1     4    11.3   784.2    0.00 
 272   15:30   0.41   66.1    23    5.6   340    12.5   784.2    0.00 
 272   15:40   0.38   65.4    24    3.5   352     9.6   784.2    0.00 
 272   15:50   0.34   65.6    23    4.8   334    10.7   784.2    0.00 
 272   16:00   0.31   65.0    23    5.1   346    13.1   784.3    0.00 
 272   16:10   0.27   65.1    24    4.2   348     9.2   784.3    0.00 
 272   16:20   0.24   65.0    23    5.6   332    12.9   784.3    0.00 
 272   16:30   0.20   64.3    23    5.1   325    11.9   784.4    0.00 
 272   16:40   0.17   64.1    24    4.2   325     9.2   784.5    0.00 
 272   16:50   0.14   63.0    24    4.4   313    10.2   784.5    0.00 
 272   17:00   0.10   63.0    26    3.8   339    10.1   784.5    0.00 
 272   17:10   0.04   61.6    27    3.9   332     8.1   784.5    0.00 
 272   17:20   0.01   58.9    30    1.6   307     4.7   784.5    0.00 
 272   17:30   0.00   56.1    36    1.6   181     3.3   784.4    0.00 
 272   17:40   0.00   51.8    43    2.5   215     4.1   784.3    0.00 
 272   17:50   0.00   50.0    44    2.5   236     4.5   784.2    0.00 
 272   18:00   0.00   48.9    46    2.5   253     4.8   784.2    0.00 
 272   18:10   0.00   48.0    47    2.7   239     4.3   784.2    0.00 
 272   18:20   0.00   48.1    47    4.0   224     6.9   784.3    0.00 
 272   18:30   0.00   47.1    49    3.0   234     4.0   784.4    0.00 
 272   18:40   0.00   46.4    50    1.6   169     4.4   784.5    0.00 
 272   18:50   0.00   46.2    51    1.3   130     3.7   784.7    0.00 
 272   19:00   0.00   45.4    53    2.9   237     4.6   784.8    0.00 
 272   19:10   0.00   44.4    55    3.5   215     6.0   784.8    0.00 
 272   19:20   0.00   44.1    55    4.6   236     6.4   784.9    0.00 
 272   19:30   0.00   44.2    56    3.2   282     4.8   784.9    0.00 
 272   19:40   0.00   43.3    62    2.5   314     4.1   785.1    0.00 
 272   19:50   0.00   41.3    67    0.1   283     1.0   785.2    0.00 
 272   20:00   0.00   40.3    71    0.1   348     0.9   785.3    0.00 
 272   20:10   0.00   39.2    73    1.8   312     4.4   785.4    0.00 
 272   20:20   0.00   37.7    74    1.5   259     4.5   785.6    0.00 
 272   20:30   0.00   37.1    73    1.0   106     2.6   785.6    0.00 
 272   20:40   0.00   37.4    76    1.2   316     3.1   785.6    0.00 
 272   20:50   0.00   37.1    75    1.1    37     2.9   785.5    0.00 
 272   21:00   0.00   36.5    74    2.2    92     3.4   785.6    0.00 
 272   21:10   0.00   36.5    74    0.8   143     2.1   785.7    0.00 
 272   21:20   0.00   34.9    77    1.2   190     2.0   785.7    0.00 
 272   21:30   0.00   35.5    76    2.2   274     3.8   785.8    0.00 
 272   21:40   0.00   35.5    78    1.7   254     2.7   785.8    0.00 
 272   21:50   0.00   34.7    78    1.9   233     3.0   785.7    0.00 
 272   22:00   0.00   35.1    80    1.6   294     3.0   785.7    0.00 
 272   22:10   0.00   34.1    82    1.4   248     3.0   785.6    0.00 
 272   22:20   0.00   34.4    80    0.8   272     2.0   785.5    0.00 
 272   22:30   0.00   34.5    79    2.5   300     5.0   785.6    0.00 
 272   22:40   0.00   34.8    76    1.9   287     4.7   785.8    0.00 
 272   22:50   0.00   32.9    81    0.7   248     2.2   785.8    0.00 
 272   23:00   0.00   32.3    84    1.1   282     2.9   785.8    0.00 
 272   23:10   0.00   32.6    86    2.6   318     6.2   785.5    0.00 
 272   23:20   0.00   34.9    77    3.8   312     7.7   785.8    0.00 
 272   23:30   0.00   35.1    75    2.0    52     4.0   785.7    0.00 
 272   23:40   0.00   33.3    80    1.3   192     1.9   785.6    0.00 
 272   23:50   0.00   31.6    85    2.2   242     3.4   785.5    0.00 
 273    0:00   0.00   31.5    84    1.7   221     2.9   785.4    0.00 
 273    0:10   0.00   31.3    86    0.7   279     1.6   785.4    0.00 
 273    0:20   0.00   30.1    88    0.5   300     1.5   785.4    0.00 
 273    0:30   0.00   29.7    91    1.4   345     2.7   785.5    0.00 
 273    0:40   0.00   29.8    88    1.8   228     2.8   785.6    0.00 
 273    0:50   0.00   29.5    88    2.0   213     3.4   785.5    0.00 
 273    1:00   0.00   29.5    87    2.3   250     3.8   785.5    0.00 
 273    1:10   0.00   30.1    90    1.3   272     2.5   785.4    0.00 
 273    1:20   0.00   30.7    87    1.6   332     6.0   785.4    0.00 
 273    1:30   0.00   30.0    88    1.2   301     3.6   785.4    0.00 
 273    1:40   0.00   28.7    89    0.5   298     1.8   785.3    0.00 
 273    1:50   0.00   28.4    91    2.4   289     5.9   785.2    0.00 
 273    2:00   0.00   29.1    87    1.5   244     2.8   785.2    0.00 
 273    2:10   0.00   28.5    91    1.6   290     2.9   784.9    0.00 
 273    2:20   0.00   29.1    90    2.8   314     6.6   784.7    0.00 
 273    2:30   0.00   29.5    87    2.3   174     5.8   784.6    0.00 
 273    2:40   0.00   29.6    88    0.0   236     0.8   784.5    0.00 
 273    2:50   0.00   29.1    88    0.4   251     1.9   784.5    0.00 
 273    3:00   0.00   28.3    89    2.2   291     5.6   784.5    0.00 

Return to SNARL Reserve graphs page.


Western Regional Climate Center,wrcc@dri.edu